sensor_id;sensor_type;location;lat;lon;timestamp;pressure;altitude;pressure_sealevel;temperature;humidity
26719;BME280;14326;50.794;6.060;2022-10-17T00:00:34;99720.34;;;17.44;100.00
26719;BME280;14326;50.794;6.060;2022-10-17T00:03:01;99720.25;;;17.50;100.00
26719;BME280;14326;50.794;6.060;2022-10-17T00:05:29;99716.63;;;17.52;100.00
26719;BME280;14326;50.794;6.060;2022-10-17T00:07:56;99716.53;;;17.57;100.00
26719;BME280;14326;50.794;6.060;2022-10-17T00:10:22;99713.00;;;17.55;100.00
26719;BME280;14326;50.794;6.060;2022-10-17T00:12:50;99706.84;;;17.48;100.00
26719;BME280;14326;50.794;6.060;2022-10-17T00:15:18;99717.59;;;17.48;100.00
26719;BME280;14326;50.794;6.060;2022-10-17T00:17:45;99710.44;;;17.49;100.00
26719;BME280;14326;50.794;6.060;2022-10-17T00:20:12;99711.25;;;17.51;100.00
26719;BME280;14326;50.794;6.060;2022-10-17T00:22:41;99712.94;;;17.58;100.00
26719;BME280;14326;50.794;6.060;2022-10-17T00:25:08;99714.81;;;17.53;100.00
26719;BME280;14326;50.794;6.060;2022-10-17T00:27:35;99710.25;;;17.58;100.00
26719;BME280;14326;50.794;6.060;2022-10-17T00:30:03;99710.22;;;17.59;100.00
26719;BME280;14326;50.794;6.060;2022-10-17T00:32:30;99710.16;;;17.66;100.00
26719;BME280;14326;50.794;6.060;2022-10-17T00:35:00;99709.25;;;17.65;100.00
26719;BME280;14326;50.794;6.060;2022-10-17T00:37:27;99708.38;;;17.65;100.00
26719;BME280;14326;50.794;6.060;2022-10-17T00:39:56;99718.22;;;17.66;100.00
26719;BME280;14326;50.794;6.060;2022-10-17T00:42:23;99720.91;;;17.66;100.00
26719;BME280;14326;50.794;6.060;2022-10-17T00:45:18;99719.97;;;17.68;100.00
26719;BME280;14326;50.794;6.060;2022-10-17T00:47:47;99719.84;;;17.74;100.00
26719;BME280;14326;50.794;6.060;2022-10-17T00:50:17;99723.41;;;17.76;100.00
26719;BME280;14326;50.794;6.060;2022-10-17T00:52:45;99724.34;;;17.74;100.00
26719;BME280;14326;50.794;6.060;2022-10-17T00:55:17;99713.66;;;17.69;100.00
26719;BME280;14326;50.794;6.060;2022-10-17T00:57:46;99718.13;;;17.70;100.00
26719;BME280;14326;50.794;6.060;2022-10-17T01:00:14;99716.34;;;17.69;100.00
26719;BME280;14326;50.794;6.060;2022-10-17T01:02:41;99711.78;;;17.74;100.00
26719;BME280;14326;50.794;6.060;2022-10-17T01:05:08;99714.44;;;17.77;100.00
26719;BME280;14326;50.794;6.060;2022-10-17T01:07:36;99712.56;;;17.79;100.00
26719;BME280;14326;50.794;6.060;2022-10-17T01:10:04;99713.53;;;17.78;100.00
26719;BME280;14326;50.794;6.060;2022-10-17T01:12:40;99703.78;;;17.71;100.00
26719;BME280;14326;50.794;6.060;2022-10-17T01:15:15;99710.88;;;17.74;100.00
26719;BME280;14326;50.794;6.060;2022-10-17T01:17:52;99716.22;;;17.77;100.00
26719;BME280;14326;50.794;6.060;2022-10-17T01:20:44;99718.13;;;17.70;100.00
26719;BME280;14326;50.794;6.060;2022-10-17T01:23:48;99717.13;;;17.76;100.00
26719;BME280;14326;50.794;6.060;2022-10-17T01:26:24;99715.38;;;17.73;100.00
26719;BME280;14326;50.794;6.060;2022-10-17T01:29:09;99708.19;;;17.74;100.00
26719;BME280;14326;50.794;6.060;2022-10-17T01:31:44;99715.47;;;17.69;100.00
26719;BME280;14326;50.794;6.060;2022-10-17T01:34:15;99715.47;;;17.69;100.00
26719;BME280;14326;50.794;6.060;2022-10-17T01:36:47;99712.78;;;17.69;100.00
26719;BME280;14326;50.794;6.060;2022-10-17T01:39:21;99712.78;;;17.67;100.00
26719;BME280;14326;50.794;6.060;2022-10-17T01:41:55;99711.97;;;17.64;100.00
26719;BME280;14326;50.794;6.060;2022-10-17T01:44:30;99706.50;;;17.68;100.00
26719;BME280;14326;50.794;6.060;2022-10-17T01:47:04;99714.56;;;17.70;100.00
26719;BME280;14326;50.794;6.060;2022-10-17T01:49:32;99706.38;;;17.76;100.00
26719;BME280;14326;50.794;6.060;2022-10-17T01:52:03;99716.13;;;17.81;100.00
26719;BME280;14326;50.794;6.060;2022-10-17T01:54:37;99716.22;;;17.77;100.00
26719;BME280;14326;50.794;6.060;2022-10-17T01:57:09;99716.34;;;17.69;100.00
26719;BME280;14326;50.794;6.060;2022-10-17T01:59:40;99711.00;;;17.68;100.00
26719;BME280;14326;50.794;6.060;2022-10-17T02:02:08;99707.38;;;17.70;100.00
26719;BME280;14326;50.794;6.060;2022-10-17T02:04:36;99707.41;;;17.67;100.00
26719;BME280;14326;50.794;6.060;2022-10-17T02:07:07;99697.50;;;17.71;100.00
26719;BME280;14326;50.794;6.060;2022-10-17T02:09:34;99708.25;;;17.71;100.00
26719;BME280;14326;50.794;6.060;2022-10-17T02:12:34;99695.69;;;17.71;100.00
26719;BME280;14326;50.794;6.060;2022-10-17T02:15:27;99698.31;;;17.74;100.00
26719;BME280;14326;50.794;6.060;2022-10-17T02:18:05;99699.31;;;17.69;100.00
26719;BME280;14326;50.794;6.060;2022-10-17T02:20:39;99698.53;;;17.62;100.00
26719;BME280;14326;50.794;6.060;2022-10-17T02:23:12;99696.81;;;17.58;100.00
26719;BME280;14326;50.794;6.060;2022-10-17T02:25:50;99698.66;;;17.54;100.00
26719;BME280;14326;50.794;6.060;2022-10-17T02:28:20;99701.38;;;17.53;100.00
26719;BME280;14326;50.794;6.060;2022-10-17T02:30:52;99690.63;;;17.51;100.00
26719;BME280;14326;50.794;6.060;2022-10-17T02:33:24;99700.47;;;17.54;100.00
26719;BME280;14326;50.794;6.060;2022-10-17T02:35:56;99699.59;;;17.52;100.00
26719;BME280;14326;50.794;6.060;2022-10-17T02:38:26;99701.47;;;17.48;100.00
26719;BME280;14326;50.794;6.060;2022-10-17T02:40:55;99702.41;;;17.46;100.00
26719;BME280;14326;50.794;6.060;2022-10-17T02:43:22;99698.81;;;17.45;100.00
26719;BME280;14326;50.794;6.060;2022-10-17T02:45:50;99698.88;;;17.42;100.00
26719;BME280;14326;50.794;6.060;2022-10-17T02:48:23;99705.22;;;17.38;100.00
26719;BME280;14326;50.794;6.060;2022-10-17T02:50:57;99716.91;;;17.37;100.00
26719;BME280;14326;50.794;6.060;2022-10-17T02:53:32;99714.22;;;17.37;100.00
26719;BME280;14326;50.794;6.060;2022-10-17T02:56:08;99711.56;;;17.34;100.00
26719;BME280;14326;50.794;6.060;2022-10-17T02:58:41;99715.22;;;17.32;100.00
26719;BME280;14326;50.794;6.060;2022-10-17T03:01:09;99715.31;;;17.26;100.00
26719;BME280;14326;50.794;6.060;2022-10-17T03:03:37;99713.56;;;17.22;100.00
26719;BME280;14326;50.794;6.060;2022-10-17T03:06:04;99718.09;;;17.18;100.00
26719;BME280;14326;50.794;6.060;2022-10-17T03:08:31;99712.56;;;17.27;100.00
26719;BME280;14326;50.794;6.060;2022-10-17T03:10:57;99717.94;;;17.27;100.00
26719;BME280;14326;50.794;6.060;2022-10-17T03:13:26;99716.16;;;17.28;100.00
26719;BME280;14326;50.794;6.060;2022-10-17T03:15:58;99709.75;;;17.36;100.00
26719;BME280;14326;50.794;6.060;2022-10-17T03:18:29;99718.69;;;17.37;100.00
26719;BME280;14326;50.794;6.060;2022-10-17T03:21:02;99715.06;;;17.38;100.00
26719;BME280;14326;50.794;6.060;2022-10-17T03:23:31;99717.72;;;17.41;100.00
26719;BME280;14326;50.794;6.060;2022-10-17T03:26:04;99713.06;;;17.50;100.00
26719;BME280;14326;50.794;6.060;2022-10-17T03:28:33;99728.31;;;17.50;100.00
26719;BME280;14326;50.794;6.060;2022-10-17T03:31:08;99728.25;;;17.54;100.00
26719;BME280;14326;50.794;6.060;2022-10-17T03:33:36;99726.38;;;17.58;100.00
26719;BME280;14326;50.794;6.060;2022-10-17T03:36:17;99737.13;;;17.59;100.00
26719;BME280;14326;50.794;6.060;2022-10-17T03:38:55;99726.38;;;17.58;100.00
26719;BME280;14326;50.794;6.060;2022-10-17T03:41:25;99737.22;;;17.53;100.00
26719;BME280;14326;50.794;6.060;2022-10-17T03:43:57;99743.50;;;17.54;100.00
26719;BME280;14326;50.794;6.060;2022-10-17T03:46:30;99736.25;;;17.59;100.00
26719;BME280;14326;50.794;6.060;2022-10-17T03:48:59;99738.06;;;17.57;100.00
26719;BME280;14326;50.794;6.060;2022-10-17T03:51:29;99742.63;;;17.53;100.00
26719;BME280;14326;50.794;6.060;2022-10-17T03:53:58;99740.03;;;17.47;100.00
26719;BME280;14326;50.794;6.060;2022-10-17T03:56:40;99740.94;;;17.45;100.00
26719;BME280;14326;50.794;6.060;2022-10-17T03:59:11;99734.59;;;17.50;100.00
26719;BME280;14326;50.794;6.060;2022-10-17T04:01:43;99736.34;;;17.53;100.00
26719;BME280;14326;50.794;6.060;2022-10-17T04:04:15;99736.34;;;17.53;100.00
26719;BME280;14326;50.794;6.060;2022-10-17T04:06:48;99739.03;;;17.53;100.00
26719;BME280;14326;50.794;6.060;2022-10-17T04:09:24;99738.13;;;17.54;100.00
26719;BME280;14326;50.794;6.060;2022-10-17T04:12:12;99741.75;;;17.50;100.00
26719;BME280;14326;50.794;6.060;2022-10-17T04:14:42;99740.84;;;17.52;100.00
26719;BME280;14326;50.794;6.060;2022-10-17T04:17:10;99735.38;;;17.57;100.00
26719;BME280;14326;50.794;6.060;2022-10-17T04:19:36;99744.22;;;17.67;100.00
26719;BME280;14326;50.794;6.060;2022-10-17T04:22:04;99739.56;;;17.75;100.00
26719;BME280;14326;50.794;6.060;2022-10-17T04:24:32;99748.59;;;17.72;100.00
26719;BME280;14326;50.794;6.060;2022-10-17T04:26:59;99737.84;;;17.71;100.00
26719;BME280;14326;50.794;6.060;2022-10-17T04:29:26;99730.56;;;17.79;100.00
26719;BME280;14326;50.794;6.060;2022-10-17T04:31:52;99739.53;;;17.78;100.00
26719;BME280;14326;50.794;6.060;2022-10-17T04:34:20;99737.66;;;17.81;100.00
26719;BME280;14326;50.794;6.060;2022-10-17T04:36:46;99741.13;;;17.89;100.00
26719;BME280;14326;50.794;6.060;2022-10-17T04:39:14;99740.34;;;17.83;100.00
26719;BME280;14326;50.794;6.060;2022-10-17T04:41:41;99743.88;;;17.85;100.00
26719;BME280;14326;50.794;6.060;2022-10-17T04:44:09;99745.66;;;17.86;100.00
26719;BME280;14326;50.794;6.060;2022-10-17T04:46:35;99751.03;;;17.86;100.00
26719;BME280;14326;50.794;6.060;2022-10-17T04:49:02;99749.25;;;17.85;100.00
26719;BME280;14326;50.794;6.060;2022-10-17T04:51:29;99757.31;;;17.85;100.00
26719;BME280;14326;50.794;6.060;2022-10-17T04:53:55;99755.41;;;17.91;100.00
26719;BME280;14326;50.794;6.060;2022-10-17T04:56:24;99758.16;;;17.90;100.00
26719;BME280;14326;50.794;6.060;2022-10-17T04:58:51;99759.03;;;17.90;100.00
26719;BME280;14326;50.794;6.060;2022-10-17T05:01:19;99768.09;;;17.85;100.00
26719;BME280;14326;50.794;6.060;2022-10-17T05:03:47;99768.13;;;17.83;100.00
26719;BME280;14326;50.794;6.060;2022-10-17T05:06:15;99770.84;;;17.82;100.00
26719;BME280;14326;50.794;6.060;2022-10-17T05:08:43;99769.16;;;17.76;100.00
26719;BME280;14326;50.794;6.060;2022-10-17T05:11:17;99767.53;;;17.66;100.00
26719;BME280;14326;50.794;6.060;2022-10-17T05:13:48;99780.88;;;17.72;100.00
26719;BME280;14326;50.794;6.060;2022-10-17T05:16:16;99779.94;;;17.73;100.00
26719;BME280;14326;50.794;6.060;2022-10-17T05:18:42;99780.94;;;17.69;100.00
26719;BME280;14326;50.794;6.060;2022-10-17T05:21:09;99776.47;;;17.68;100.00
26719;BME280;14326;50.794;6.060;2022-10-17T05:23:35;99780.00;;;17.72;100.00
26719;BME280;14326;50.794;6.060;2022-10-17T05:26:02;99781.00;;;17.66;100.00
26719;BME280;14326;50.794;6.060;2022-10-17T05:28:28;99786.38;;;17.66;100.00
26719;BME280;14326;50.794;6.060;2022-10-17T05:30:56;99777.31;;;17.70;100.00
26719;BME280;14326;50.794;6.060;2022-10-17T05:33:23;99778.22;;;17.71;100.00
26719;BME280;14326;50.794;6.060;2022-10-17T05:35:50;99782.72;;;17.70;100.00
26719;BME280;14326;50.794;6.060;2022-10-17T05:38:16;99778.22;;;17.71;100.00
26719;BME280;14326;50.794;6.060;2022-10-17T05:40:43;99790.72;;;17.73;100.00
26719;BME280;14326;50.794;6.060;2022-10-17T05:43:09;99784.38;;;17.77;100.00
26719;BME280;14326;50.794;6.060;2022-10-17T05:45:36;99790.69;;;17.75;100.00
26719;BME280;14326;50.794;6.060;2022-10-17T05:48:04;99782.53;;;17.79;99.95
26719;BME280;14326;50.794;6.060;2022-10-17T05:50:33;99792.50;;;17.74;100.00
26719;BME280;14326;50.794;6.060;2022-10-17T05:53:00;99785.28;;;17.76;99.51
26719;BME280;14326;50.794;6.060;2022-10-17T05:55:27;99787.09;;;17.77;99.69
26719;BME280;14326;50.794;6.060;2022-10-17T05:57:58;99781.69;;;17.77;99.16
26719;BME280;14326;50.794;6.060;2022-10-17T06:00:24;99785.38;;;17.72;99.51
26719;BME280;14326;50.794;6.060;2022-10-17T06:02:51;99775.53;;;17.69;99.88
26719;BME280;14326;50.794;6.060;2022-10-17T06:05:19;99788.19;;;17.66;100.00
26719;BME280;14326;50.794;6.060;2022-10-17T06:07:46;99797.97;;;17.68;99.72
26719;BME280;14326;50.794;6.060;2022-10-17T06:10:13;99798.78;;;17.73;99.20
26719;BME280;14326;50.794;6.060;2022-10-17T06:12:40;99790.81;;;17.67;99.90
26719;BME280;14326;50.794;6.060;2022-10-17T06:15:08;99787.22;;;17.68;99.40
26719;BME280;14326;50.794;6.060;2022-10-17T06:17:34;99791.75;;;17.66;99.51
26719;BME280;14326;50.794;6.060;2022-10-17T06:20:01;99805.22;;;17.65;99.73
26719;BME280;14326;50.794;6.060;2022-10-17T06:22:29;99810.53;;;17.68;99.36
26719;BME280;14326;50.794;6.060;2022-10-17T06:24:56;99814.09;;;17.70;99.34
26719;BME280;14326;50.794;6.060;2022-10-17T06:27:22;99817.63;;;17.73;98.93
26719;BME280;14326;50.794;6.060;2022-10-17T06:29:49;99823.88;;;17.75;98.58
26719;BME280;14326;50.794;6.060;2022-10-17T06:32:16;99825.56;;;17.82;98.00
26719;BME280;14326;50.794;6.060;2022-10-17T06:34:43;99830.81;;;17.90;97.31
26719;BME280;14326;50.794;6.060;2022-10-17T06:37:09;99827.91;;;18.02;96.95
26719;BME280;14326;50.794;6.060;2022-10-17T06:39:38;99821.38;;;18.15;95.44
26719;BME280;14326;50.794;6.060;2022-10-17T06:42:04;99821.25;;;18.23;94.99
26719;BME280;14326;50.794;6.060;2022-10-17T06:44:31;99819.31;;;18.31;93.96
26719;BME280;14326;50.794;6.060;2022-10-17T06:46:58;99821.94;;;18.32;93.87
26719;BME280;14326;50.794;6.060;2022-10-17T06:49:25;99820.19;;;18.31;93.96
26719;BME280;14326;50.794;6.060;2022-10-17T06:51:52;99815.56;;;18.38;92.83
26719;BME280;14326;50.794;6.060;2022-10-17T06:54:19;99819.97;;;18.44;93.04
26719;BME280;14326;50.794;6.060;2022-10-17T06:56:47;99815.72;;;18.76;90.99
26719;BME280;14326;50.794;6.060;2022-10-17T06:59:14;99811.25;;;19.15;88.50
26719;BME280;14326;50.794;6.060;2022-10-17T07:01:42;99814.31;;;19.39;86.63
26719;BME280;14326;50.794;6.060;2022-10-17T07:04:09;99828.59;;;19.45;85.78
26719;BME280;14326;50.794;6.060;2022-10-17T07:06:36;99832.25;;;19.41;85.80
26719;BME280;14326;50.794;6.060;2022-10-17T07:09:03;99830.63;;;19.34;86.08
26719;BME280;14326;50.794;6.060;2022-10-17T07:11:31;99822.81;;;19.22;86.91
26719;BME280;14326;50.794;6.060;2022-10-17T07:14:00;99818.97;;;19.32;86.78
26719;BME280;14326;50.794;6.060;2022-10-17T07:16:27;99825.84;;;19.48;85.56
26719;BME280;14326;50.794;6.060;2022-10-17T07:18:55;99837.84;;;19.72;84.43
26719;BME280;14326;50.794;6.060;2022-10-17T07:21:21;99846.03;;;20.03;82.80
26719;BME280;14326;50.794;6.060;2022-10-17T07:23:48;99845.28;;;20.33;80.43
26719;BME280;14326;50.794;6.060;2022-10-17T07:26:16;99843.09;;;20.48;79.80
26719;BME280;14326;50.794;6.060;2022-10-17T07:28:45;99842.59;;;20.66;78.65
26719;BME280;14326;50.794;6.060;2022-10-17T07:31:16;99854.16;;;20.71;78.17
26719;BME280;14326;50.794;6.060;2022-10-17T07:33:45;99853.13;;;20.75;78.12
26719;BME280;14326;50.794;6.060;2022-10-17T07:36:13;99866.25;;;20.90;77.00
26719;BME280;14326;50.794;6.060;2022-10-17T07:38:40;99871.69;;;20.89;77.87
26719;BME280;14326;50.794;6.060;2022-10-17T07:41:08;99879.09;;;21.13;75.75
26719;BME280;14326;50.794;6.060;2022-10-17T07:43:37;99885.06;;;21.26;75.43
26719;BME280;14326;50.794;6.060;2022-10-17T07:46:04;99892.09;;;21.60;74.26
26719;BME280;14326;50.794;6.060;2022-10-17T07:48:33;99896.91;;;22.08;71.20
26719;BME280;14326;50.794;6.060;2022-10-17T07:51:01;99894.19;;;22.34;70.16
26719;BME280;14326;50.794;6.060;2022-10-17T07:53:28;99921.13;;;22.13;70.27
26719;BME280;14326;50.794;6.060;2022-10-17T07:55:55;99896.25;;;22.00;70.69
26719;BME280;14326;50.794;6.060;2022-10-17T07:58:22;99902.09;;;21.58;72.89
26719;BME280;14326;50.794;6.060;2022-10-17T08:00:49;99903.91;;;21.29;74.43
26719;BME280;14326;50.794;6.060;2022-10-17T08:03:16;99903.16;;;21.23;74.15
26719;BME280;14326;50.794;6.060;2022-10-17T08:05:44;99906.88;;;20.87;75.69
26719;BME280;14326;50.794;6.060;2022-10-17T08:08:11;99907.84;;;20.52;78.00
26719;BME280;14326;50.794;6.060;2022-10-17T08:10:40;99904.09;;;20.22;79.94
26719;BME280;14326;50.794;6.060;2022-10-17T08:13:06;99916.84;;;20.16;80.61
26719;BME280;14326;50.794;6.060;2022-10-17T08:15:36;99913.19;;;20.18;80.54
26719;BME280;14326;50.794;6.060;2022-10-17T08:18:03;99928.88;;;20.39;78.85
26719;BME280;14326;50.794;6.060;2022-10-17T08:20:29;99935.31;;;20.35;79.33
26719;BME280;14326;50.794;6.060;2022-10-17T08:22:58;99935.50;;;20.26;79.23
26719;BME280;14326;50.794;6.060;2022-10-17T08:25:26;99941.84;;;20.25;79.93
26719;BME280;14326;50.794;6.060;2022-10-17T08:27:53;99949.88;;;20.28;79.59
26719;BME280;14326;50.794;6.060;2022-10-17T08:30:20;99944.69;;;20.19;80.02
26719;BME280;14326;50.794;6.060;2022-10-17T08:32:46;99943.94;;;20.14;80.17
26719;BME280;14326;50.794;6.060;2022-10-17T08:35:13;99969.28;;;20.09;81.08
26719;BME280;14326;50.794;6.060;2022-10-17T08:37:40;99959.41;;;20.08;80.91
26719;BME280;14326;50.794;6.060;2022-10-17T08:40:10;99964.69;;;20.12;81.68
26719;BME280;14326;50.794;6.060;2022-10-17T08:43:06;99960.97;;;20.16;80.67
26719;BME280;14326;50.794;6.060;2022-10-17T08:45:41;99949.81;;;20.31;81.27
26719;BME280;14326;50.794;6.060;2022-10-17T08:48:13;99959.28;;;20.49;81.46
26719;BME280;14326;50.794;6.060;2022-10-17T08:50:44;99974.50;;;20.53;79.66
26719;BME280;14326;50.794;6.060;2022-10-17T08:53:16;99985.34;;;20.52;79.08
26719;BME280;14326;50.794;6.060;2022-10-17T08:55:47;99978.09;;;20.54;80.58
26719;BME280;14326;50.794;6.060;2022-10-17T08:58:17;99989.09;;;20.46;80.15
26719;BME280;14326;50.794;6.060;2022-10-17T09:00:46;99991.16;;;20.35;80.63
26719;BME280;14326;50.794;6.060;2022-10-17T09:03:25;99976.91;;;20.27;80.68
26719;BME280;14326;50.794;6.060;2022-10-17T09:06:08;99986.94;;;20.22;81.76
26719;BME280;14326;50.794;6.060;2022-10-17T09:08:41;99995.19;;;20.16;82.00
26719;BME280;14326;50.794;6.060;2022-10-17T09:11:20;99996.28;;;20.09;82.48
26719;BME280;14326;50.794;6.060;2022-10-17T09:13:59;99993.63;;;20.07;82.55
26719;BME280;14326;50.794;6.060;2022-10-17T09:16:53;100009.69;;;20.13;83.48
26719;BME280;14326;50.794;6.060;2022-10-17T09:19:27;100011.47;;;20.14;82.19
26719;BME280;14326;50.794;6.060;2022-10-17T09:21:58;100012.28;;;20.16;83.55
26719;BME280;14326;50.794;6.060;2022-10-17T09:24:36;100013.13;;;20.20;84.92
26719;BME280;14326;50.794;6.060;2022-10-17T09:27:14;100009.53;;;20.19;83.93
26719;BME280;14326;50.794;6.060;2022-10-17T09:29:45;100019.56;;;20.14;83.94
26719;BME280;14326;50.794;6.060;2022-10-17T09:32:16;100025.91;;;20.12;83.44
26719;BME280;14326;50.794;6.060;2022-10-17T09:34:44;100007.03;;;20.10;83.80
26719;BME280;14326;50.794;6.060;2022-10-17T09:37:12;100017.94;;;20.07;83.94
26719;BME280;14326;50.794;6.060;2022-10-17T09:39:41;100026.91;;;20.08;85.01
26719;BME280;14326;50.794;6.060;2022-10-17T09:42:12;100013.44;;;20.06;84.08
26719;BME280;14326;50.794;6.060;2022-10-17T09:44:44;100022.41;;;20.08;84.59
26719;BME280;14326;50.794;6.060;2022-10-17T09:47:20;100029.53;;;20.11;84.90
26719;BME280;14326;50.794;6.060;2022-10-17T09:49:48;100028.38;;;20.21;82.49
26719;BME280;14326;50.794;6.060;2022-10-17T09:52:17;100022.06;;;20.22;82.92
26719;BME280;14326;50.794;6.060;2022-10-17T09:54:47;100022.16;;;20.19;83.46
26719;BME280;14326;50.794;6.060;2022-10-17T09:57:17;100039.41;;;20.13;83.64
26719;BME280;14326;50.794;6.060;2022-10-17T09:59:46;100048.41;;;20.12;84.30
26719;BME280;14326;50.794;6.060;2022-10-17T10:02:16;100052.91;;;20.13;83.48
26719;BME280;14326;50.794;6.060;2022-10-17T10:05:00;100046.59;;;20.14;84.44
26719;BME280;14326;50.794;6.060;2022-10-17T10:07:28;100048.47;;;20.09;85.01
26719;BME280;14326;50.794;6.060;2022-10-17T10:09:56;100052.94;;;20.10;85.23
26719;BME280;14326;50.794;6.060;2022-10-17T10:12:27;100036.81;;;20.09;85.26
26719;BME280;14326;50.794;6.060;2022-10-17T10:14:54;100032.38;;;20.04;85.38
26719;BME280;14326;50.794;6.060;2022-10-17T10:17:34;100031.41;;;20.09;85.39
26719;BME280;14326;50.794;6.060;2022-10-17T10:20:03;100024.25;;;20.06;85.55
26719;BME280;14326;50.794;6.060;2022-10-17T10:23:04;100012.56;;;20.04;85.57
26719;BME280;14326;50.794;6.060;2022-10-17T10:25:31;100002.69;;;20.03;86.00
26719;BME280;14326;50.794;6.060;2022-10-17T10:28:00;100017.19;;;19.99;86.22
26719;BME280;14326;50.794;6.060;2022-10-17T10:30:29;100016.41;;;19.95;86.37
26719;BME280;14326;50.794;6.060;2022-10-17T10:32:58;100030.69;;;20.00;86.59
26719;BME280;14326;50.794;6.060;2022-10-17T10:35:31;100044.06;;;20.05;85.61
26719;BME280;14326;50.794;6.060;2022-10-17T10:38:01;100037.78;;;20.04;85.53
26719;BME280;14326;50.794;6.060;2022-10-17T10:40:32;100044.03;;;20.07;85.00
26719;BME280;14326;50.794;6.060;2022-10-17T10:43:03;100048.44;;;20.11;85.71
26719;BME280;14326;50.794;6.060;2022-10-17T10:45:40;100049.50;;;20.03;86.53
26719;BME280;14326;50.794;6.060;2022-10-17T10:48:17;100042.22;;;20.07;86.96
26719;BME280;14326;50.794;6.060;2022-10-17T10:50:47;100048.44;;;20.11;86.42
26719;BME280;14326;50.794;6.060;2022-10-17T10:53:27;100057.31;;;20.16;86.27
26719;BME280;14326;50.794;6.060;2022-10-17T10:55:57;100064.41;;;20.21;86.81
26719;BME280;14326;50.794;6.060;2022-10-17T10:58:33;100069.66;;;20.27;86.13
26719;BME280;14326;50.794;6.060;2022-10-17T11:01:06;100081.16;;;20.38;86.10
26719;BME280;14326;50.794;6.060;2022-10-17T11:03:39;100092.66;;;20.48;86.03
26719;BME280;14326;50.794;6.060;2022-10-17T11:06:12;100092.38;;;20.60;85.76
26719;BME280;14326;50.794;6.060;2022-10-17T11:08:43;100094.91;;;20.66;85.04
26719;BME280;14326;50.794;6.060;2022-10-17T11:11:15;100109.22;;;20.71;85.26
26719;BME280;14326;50.794;6.060;2022-10-17T11:13:49;100102.59;;;20.83;84.38
26719;BME280;14326;50.794;6.060;2022-10-17T11:16:24;100106.84;;;20.93;82.79
26719;BME280;14326;50.794;6.060;2022-10-17T11:18:58;100121.31;;;20.92;83.12
26719;BME280;14326;50.794;6.060;2022-10-17T11:21:35;100125.88;;;20.90;83.88
26719;BME280;14326;50.794;6.060;2022-10-17T11:24:11;100130.28;;;20.94;82.95
26719;BME280;14326;50.794;6.060;2022-10-17T11:26:45;100131.06;;;20.98;82.23
26719;BME280;14326;50.794;6.060;2022-10-17T11:29:16;100134.66;;;20.98;82.66
26719;BME280;14326;50.794;6.060;2022-10-17T11:31:46;100135.53;;;21.00;82.90
26719;BME280;14326;50.794;6.060;2022-10-17T11:34:19;100145.41;;;21.03;82.06
26719;BME280;14326;50.794;6.060;2022-10-17T11:36:49;100141.59;;;21.10;80.40
26719;BME280;14326;50.794;6.060;2022-10-17T11:39:20;100148.00;;;21.07;81.34
26719;BME280;14326;50.794;6.060;2022-10-17T11:41:50;100148.97;;;21.03;81.40
26719;BME280;14326;50.794;6.060;2022-10-17T11:44:24;100149.81;;;21.07;81.62
26719;BME280;14326;50.794;6.060;2022-10-17T11:46:56;100152.50;;;21.07;81.39
26719;BME280;14326;50.794;6.060;2022-10-17T11:49:27;100145.19;;;21.10;80.74
26719;BME280;14326;50.794;6.060;2022-10-17T11:51:59;100154.19;;;21.11;80.08
26719;BME280;14326;50.794;6.060;2022-10-17T11:54:34;100149.78;;;21.08;79.94
26719;BME280;14326;50.794;6.060;2022-10-17T11:57:15;100141.66;;;21.08;80.59
26719;BME280;14326;50.794;6.060;2022-10-17T11:59:55;100153.66;;;20.97;80.64
26719;BME280;14326;50.794;6.060;2022-10-17T12:02:30;100155.56;;;20.92;80.94
26719;BME280;14326;50.794;6.060;2022-10-17T12:05:02;100155.69;;;20.87;81.78
26719;BME280;14326;50.794;6.060;2022-10-17T12:07:42;100155.63;;;20.90;82.60
26719;BME280;14326;50.794;6.060;2022-10-17T12:10:23;100162.06;;;20.84;82.41
26719;BME280;14326;50.794;6.060;2022-10-17T12:12:52;100161.13;;;20.85;82.03
26719;BME280;14326;50.794;6.060;2022-10-17T12:15:30;100167.50;;;20.83;82.43
26719;BME280;14326;50.794;6.060;2022-10-17T12:17:59;100164.81;;;20.83;82.79
26719;BME280;14326;50.794;6.060;2022-10-17T12:20:30;100172.94;;;20.83;81.86
26719;BME280;14326;50.794;6.060;2022-10-17T12:23:04;100175.78;;;20.77;82.04
26719;BME280;14326;50.794;6.060;2022-10-17T12:25:33;100174.06;;;20.73;82.51
26719;BME280;14326;50.794;6.060;2022-10-17T12:28:15;100171.41;;;20.71;82.44
26719;BME280;14326;50.794;6.060;2022-10-17T12:30:56;100180.56;;;20.64;83.09
26719;BME280;14326;50.794;6.060;2022-10-17T12:33:33;100174.38;;;20.59;83.32
26719;BME280;14326;50.794;6.060;2022-10-17T12:36:36;100173.47;;;20.60;84.36
26719;BME280;14326;50.794;6.060;2022-10-17T12:42:29;100173.25;;;20.68;83.61
26719;BME280;14326;50.794;6.060;2022-10-17T12:44:57;100187.75;;;20.65;83.76
26719;BME280;14326;50.794;6.060;2022-10-17T12:47:36;100175.09;;;20.67;83.15
26719;BME280;14326;50.794;6.060;2022-10-17T12:53:14;100191.25;;;20.70;83.08
26719;BME280;14326;50.794;6.060;2022-10-17T12:55:42;100185.97;;;20.64;83.87
26719;BME280;14326;50.794;6.060;2022-10-17T12:58:11;100185.97;;;20.64;83.37
26719;BME280;14326;50.794;6.060;2022-10-17T13:00:42;100188.78;;;20.60;84.03
26719;BME280;14326;50.794;6.060;2022-10-17T13:03:13;100201.41;;;20.59;83.86
26719;BME280;14326;50.794;6.060;2022-10-17T13:05:44;100200.53;;;20.59;83.25
26719;BME280;14326;50.794;6.060;2022-10-17T13:08:15;100194.97;;;20.65;83.80
26719;BME280;14326;50.794;6.060;2022-10-17T13:10:45;100197.81;;;20.59;84.40
26719;BME280;14326;50.794;6.060;2022-10-17T13:13:17;100197.00;;;20.55;84.52
26719;BME280;14326;50.794;6.060;2022-10-17T13:15:46;100199.66;;;20.57;84.63
26719;BME280;14326;50.794;6.060;2022-10-17T13:18:19;100197.09;;;20.51;85.12